Castle Hills, Texas
Current Conditions -  °F | °C
As of 11:51 PM on Tuesday 25 Nov 2014 (Local Time) from KSAT Reporting Station
Clear Clear  
Wind Chill: 46°   Ceiling: Unl
Heat Index: 48°   Visibility: 10mi
Dew Point: 33°   Wind: 5mph
Humidity: 56%   Direction: 260°W
Pressure: 30.22"   Gusts: NA
Location:  29.5157°N, 98.5226°W
Report Text: KSAT 260551Z 26004KT 10SM CLR 09/01 A3022 RMK AO2 SLP222 T00890006 10161 20083 402000039 56006
Loading
Personal Weather Stations






























Interactive Weather Map New forecast layout! Learn more

10-Day Weather Forecast

Advertisements
Track Severe Weather on mobile